TAF KJER
KJER 270520Z 2706/2806 VRB05KT P6SM BKN060 FM270900 07007KT P6SM BKN060 FM272000 04006KT P6SM SCT070=
METAR KJER
WC KJER
WS KJER
WV KJER